sensor_id;sensor_type;location;lat;lon;timestamp;pressure;altitude;pressure_sealevel;temperature;humidity
11692;BME280;33659;42.672;23.354;2022-10-17T00:00:35;95658.59;;;12.31;59.64
11692;BME280;33659;42.672;23.354;2022-10-17T00:03:02;95657.84;;;12.30;59.41
11692;BME280;33659;42.672;23.354;2022-10-17T00:05:31;95656.44;;;12.41;59.57
11692;BME280;33659;42.672;23.354;2022-10-17T00:07:57;95660.63;;;12.51;59.42
11692;BME280;33659;42.672;23.354;2022-10-17T00:10:24;95654.94;;;12.58;59.05
11692;BME280;33659;42.672;23.354;2022-10-17T00:12:51;95645.38;;;12.44;59.30
11692;BME280;33659;42.672;23.354;2022-10-17T00:15:19;95657.53;;;12.49;59.42
11692;BME280;33659;42.672;23.354;2022-10-17T00:17:46;95657.53;;;12.58;59.30
11692;BME280;33659;42.672;23.354;2022-10-17T00:20:13;95666.00;;;12.55;59.39
11692;BME280;33659;42.672;23.354;2022-10-17T00:22:42;95661.84;;;12.54;59.31
11692;BME280;33659;42.672;23.354;2022-10-17T00:25:08;95660.16;;;12.58;59.12
11692;BME280;33659;42.672;23.354;2022-10-17T00:27:36;95658.16;;;12.63;58.86
11692;BME280;33659;42.672;23.354;2022-10-17T00:30:06;95652.16;;;12.71;58.42
11692;BME280;33659;42.672;23.354;2022-10-17T00:32:34;95657.25;;;12.77;58.31
11692;BME280;33659;42.672;23.354;2022-10-17T00:35:01;95652.47;;;12.79;58.39
11692;BME280;33659;42.672;23.354;2022-10-17T00:37:29;95652.28;;;12.75;58.50
11692;BME280;33659;42.672;23.354;2022-10-17T00:39:57;95664.50;;;12.71;58.49
11692;BME280;33659;42.672;23.354;2022-10-17T00:42:24;95661.41;;;12.69;58.83
11692;BME280;33659;42.672;23.354;2022-10-17T00:45:17;95666.19;;;12.67;58.87
11692;BME280;33659;42.672;23.354;2022-10-17T00:47:47;95667.72;;;12.59;59.04
11692;BME280;33659;42.672;23.354;2022-10-17T00:50:15;95667.88;;;12.63;59.20
11692;BME280;33659;42.672;23.354;2022-10-17T00:52:43;95669.72;;;12.45;58.24
11692;BME280;33659;42.672;23.354;2022-10-17T00:55:14;95663.81;;;12.22;58.30
11692;BME280;33659;42.672;23.354;2022-10-17T00:57:42;95664.03;;;11.95;58.82
11692;BME280;33659;42.672;23.354;2022-10-17T01:00:10;95664.16;;;11.58;59.21
11692;BME280;33659;42.672;23.354;2022-10-17T01:02:37;95668.75;;;11.22;59.75
11692;BME280;33659;42.672;23.354;2022-10-17T01:05:05;95668.69;;;10.91;61.26
11692;BME280;33659;42.672;23.354;2022-10-17T01:07:32;95667.63;;;10.69;62.36
11692;BME280;33659;42.672;23.354;2022-10-17T01:10:00;95670.03;;;10.66;63.09
11692;BME280;33659;42.672;23.354;2022-10-17T01:12:36;95668.66;;;10.68;63.07
11692;BME280;33659;42.672;23.354;2022-10-17T01:15:11;95662.47;;;10.78;63.01
11692;BME280;33659;42.672;23.354;2022-10-17T01:17:50;95662.72;;;10.90;62.72
11692;BME280;33659;42.672;23.354;2022-10-17T01:20:45;95660.97;;;10.85;62.63
11692;BME280;33659;42.672;23.354;2022-10-17T01:23:32;95656.81;;;10.84;63.27
11692;BME280;33659;42.672;23.354;2022-10-17T01:26:08;95658.25;;;10.91;63.60
11692;BME280;33659;42.672;23.354;2022-10-17T01:28:55;95664.59;;;10.98;63.06
11692;BME280;33659;42.672;23.354;2022-10-17T01:31:31;95659.72;;;11.05;62.20
11692;BME280;33659;42.672;23.354;2022-10-17T01:34:03;95660.19;;;11.07;62.04
11692;BME280;33659;42.672;23.354;2022-10-17T01:36:36;95663.47;;;11.13;61.78
11692;BME280;33659;42.672;23.354;2022-10-17T01:39:14;95659.25;;;11.03;61.98
11692;BME280;33659;42.672;23.354;2022-10-17T01:41:46;95662.50;;;10.87;61.82
11692;BME280;33659;42.672;23.354;2022-10-17T01:44:18;95661.44;;;10.65;62.42
11692;BME280;33659;42.672;23.354;2022-10-17T01:46:49;95659.94;;;10.50;62.88
11692;BME280;33659;42.672;23.354;2022-10-17T01:49:19;95673.41;;;10.44;63.72
11692;BME280;33659;42.672;23.354;2022-10-17T01:51:51;95668.34;;;10.47;63.43
11692;BME280;33659;42.672;23.354;2022-10-17T01:54:22;95675.09;;;10.48;63.35
11692;BME280;33659;42.672;23.354;2022-10-17T01:56:52;95668.63;;;10.46;63.38
11692;BME280;33659;42.672;23.354;2022-10-17T01:59:23;95676.19;;;10.47;63.14
11692;BME280;33659;42.672;23.354;2022-10-17T02:01:53;95679.25;;;10.49;63.68
11692;BME280;33659;42.672;23.354;2022-10-17T02:04:21;95661.50;;;10.38;63.02
11692;BME280;33659;42.672;23.354;2022-10-17T02:06:48;95677.34;;;10.41;63.31
11692;BME280;33659;42.672;23.354;2022-10-17T02:09:17;95674.00;;;10.27;63.23
11692;BME280;33659;42.672;23.354;2022-10-17T02:11:51;95681.81;;;10.13;63.85
11692;BME280;33659;42.672;23.354;2022-10-17T02:14:27;95672.72;;;9.97;64.71
11692;BME280;33659;42.672;23.354;2022-10-17T02:17:05;95680.25;;;9.85;64.95
11692;BME280;33659;42.672;23.354;2022-10-17T02:19:40;95682.94;;;9.66;65.92
11692;BME280;33659;42.672;23.354;2022-10-17T02:22:17;95682.38;;;9.55;66.27
11692;BME280;33659;42.672;23.354;2022-10-17T02:24:50;95689.03;;;9.47;66.33
11692;BME280;33659;42.672;23.354;2022-10-17T02:27:24;95685.03;;;9.36;66.58
11692;BME280;33659;42.672;23.354;2022-10-17T02:29:59;95692.75;;;9.28;67.10
11692;BME280;33659;42.672;23.354;2022-10-17T02:32:33;95696.47;;;9.21;67.47
11692;BME280;33659;42.672;23.354;2022-10-17T02:35:02;95696.84;;;9.15;67.72
11692;BME280;33659;42.672;23.354;2022-10-17T02:37:31;95705.91;;;9.17;67.45
11692;BME280;33659;42.672;23.354;2022-10-17T02:39:59;95697.16;;;9.27;66.97
11692;BME280;33659;42.672;23.354;2022-10-17T02:42:28;95699.69;;;9.32;67.18
11692;BME280;33659;42.672;23.354;2022-10-17T02:44:58;95691.41;;;9.44;66.84
11692;BME280;33659;42.672;23.354;2022-10-17T02:47:26;95700.69;;;9.50;66.54
11692;BME280;33659;42.672;23.354;2022-10-17T02:49:57;95707.28;;;9.61;66.18
11692;BME280;33659;42.672;23.354;2022-10-17T02:52:28;95710.78;;;9.70;66.15
11692;BME280;33659;42.672;23.354;2022-10-17T02:55:04;95715.53;;;9.82;65.48
11692;BME280;33659;42.672;23.354;2022-10-17T02:57:35;95715.63;;;9.91;65.33
11692;BME280;33659;42.672;23.354;2022-10-17T03:00:05;95714.47;;;9.97;65.07
11692;BME280;33659;42.672;23.354;2022-10-17T03:02:38;95716.91;;;10.07;64.69
11692;BME280;33659;42.672;23.354;2022-10-17T03:05:07;95720.66;;;10.15;64.50
11692;BME280;33659;42.672;23.354;2022-10-17T03:07:34;95725.50;;;10.21;64.64
11692;BME280;33659;42.672;23.354;2022-10-17T03:10:01;95725.03;;;10.33;64.26
11692;BME280;33659;42.672;23.354;2022-10-17T03:12:28;95722.25;;;10.43;64.04
11692;BME280;33659;42.672;23.354;2022-10-17T03:14:54;95726.47;;;10.53;63.97
11692;BME280;33659;42.672;23.354;2022-10-17T03:17:21;95727.63;;;10.61;63.36
11692;BME280;33659;42.672;23.354;2022-10-17T03:19:48;95725.78;;;10.61;63.06
11692;BME280;33659;42.672;23.354;2022-10-17T03:22:16;95724.06;;;10.56;63.13
11692;BME280;33659;42.672;23.354;2022-10-17T03:24:42;95723.47;;;10.60;62.98
11692;BME280;33659;42.672;23.354;2022-10-17T03:27:10;95724.84;;;10.57;63.27
11692;BME280;33659;42.672;23.354;2022-10-17T03:29:36;95724.47;;;10.50;63.10
11692;BME280;33659;42.672;23.354;2022-10-17T03:32:03;95722.88;;;10.49;63.42
11692;BME280;33659;42.672;23.354;2022-10-17T03:34:30;95724.34;;;10.41;63.28
11692;BME280;33659;42.672;23.354;2022-10-17T03:36:57;95725.72;;;10.39;63.12
11692;BME280;33659;42.672;23.354;2022-10-17T03:39:25;95729.56;;;10.41;62.91
11692;BME280;33659;42.672;23.354;2022-10-17T03:41:52;95724.56;;;10.45;62.94
11692;BME280;33659;42.672;23.354;2022-10-17T03:44:19;95721.53;;;10.51;62.43
11692;BME280;33659;42.672;23.354;2022-10-17T03:46:45;95730.31;;;10.55;62.34
11692;BME280;33659;42.672;23.354;2022-10-17T03:49:12;95736.53;;;10.60;62.17
11692;BME280;33659;42.672;23.354;2022-10-17T03:51:39;95742.22;;;10.62;61.67
11692;BME280;33659;42.672;23.354;2022-10-17T03:54:05;95737.69;;;10.53;61.87
11692;BME280;33659;42.672;23.354;2022-10-17T03:56:33;95742.34;;;10.43;62.34
11692;BME280;33659;42.672;23.354;2022-10-17T03:59:00;95746.59;;;10.39;62.93
11692;BME280;33659;42.672;23.354;2022-10-17T04:01:27;95740.31;;;10.40;62.88
11692;BME280;33659;42.672;23.354;2022-10-17T04:03:55;95745.44;;;10.45;62.96
11692;BME280;33659;42.672;23.354;2022-10-17T04:06:22;95742.34;;;10.43;62.67
11692;BME280;33659;42.672;23.354;2022-10-17T04:08:49;95751.53;;;10.40;62.93
11692;BME280;33659;42.672;23.354;2022-10-17T04:11:17;95742.06;;;10.44;62.61
11692;BME280;33659;42.672;23.354;2022-10-17T04:13:47;95745.44;;;10.45;62.82
11692;BME280;33659;42.672;23.354;2022-10-17T04:16:15;95752.78;;;10.43;62.70
11692;BME280;33659;42.672;23.354;2022-10-17T04:18:43;95750.75;;;10.40;62.74
11692;BME280;33659;42.672;23.354;2022-10-17T04:21:10;95756.09;;;10.35;63.05
11692;BME280;33659;42.672;23.354;2022-10-17T04:23:37;95751.06;;;10.38;62.77
11692;BME280;33659;42.672;23.354;2022-10-17T04:26:05;95755.38;;;10.43;62.90
11692;BME280;33659;42.672;23.354;2022-10-17T04:28:32;95750.84;;;10.35;62.80
11692;BME280;33659;42.672;23.354;2022-10-17T04:31:02;95753.38;;;10.26;62.76
11692;BME280;33659;42.672;23.354;2022-10-17T04:33:29;95753.81;;;10.14;63.55
11692;BME280;33659;42.672;23.354;2022-10-17T04:35:57;95753.63;;;10.11;63.74
11692;BME280;33659;42.672;23.354;2022-10-17T04:38:24;95752.75;;;10.15;63.88
11692;BME280;33659;42.672;23.354;2022-10-17T04:40:51;95763.59;;;10.22;63.34
11692;BME280;33659;42.672;23.354;2022-10-17T04:43:18;95769.34;;;10.24;63.35
11692;BME280;33659;42.672;23.354;2022-10-17T04:45:45;95764.59;;;10.26;62.85
11692;BME280;33659;42.672;23.354;2022-10-17T04:48:13;95767.69;;;10.28;62.94
11692;BME280;33659;42.672;23.354;2022-10-17T04:50:40;95765.38;;;10.27;62.94
11692;BME280;33659;42.672;23.354;2022-10-17T04:53:07;95766.13;;;10.27;62.43
11692;BME280;33659;42.672;23.354;2022-10-17T04:55:36;95770.94;;;10.20;62.63
11692;BME280;33659;42.672;23.354;2022-10-17T04:58:03;95770.47;;;10.18;62.56
11692;BME280;33659;42.672;23.354;2022-10-17T05:00:30;95773.00;;;10.23;62.44
11692;BME280;33659;42.672;23.354;2022-10-17T05:02:56;95776.38;;;10.24;62.68
11692;BME280;33659;42.672;23.354;2022-10-17T05:05:24;95775.03;;;10.26;62.64
11692;BME280;33659;42.672;23.354;2022-10-17T05:07:51;95779.09;;;10.33;62.24
11692;BME280;33659;42.672;23.354;2022-10-17T05:10:18;95780.66;;;10.34;62.16
11692;BME280;33659;42.672;23.354;2022-10-17T05:12:45;95779.97;;;10.28;62.45
11692;BME280;33659;42.672;23.354;2022-10-17T05:15:12;95777.34;;;10.28;61.82
11692;BME280;33659;42.672;23.354;2022-10-17T05:17:39;95788.38;;;10.39;61.79
11692;BME280;33659;42.672;23.354;2022-10-17T05:20:07;95795.63;;;10.42;61.87
11692;BME280;33659;42.672;23.354;2022-10-17T05:22:35;95797.59;;;10.50;61.74
11692;BME280;33659;42.672;23.354;2022-10-17T05:25:02;95796.78;;;10.49;61.50
11692;BME280;33659;42.672;23.354;2022-10-17T05:27:29;95805.91;;;10.52;61.76
11692;BME280;33659;42.672;23.354;2022-10-17T05:29:56;95806.75;;;10.61;61.79
11692;BME280;33659;42.672;23.354;2022-10-17T05:32:23;95804.03;;;10.66;60.98
11692;BME280;33659;42.672;23.354;2022-10-17T05:34:50;95805.03;;;10.70;61.29
11692;BME280;33659;42.672;23.354;2022-10-17T05:37:16;95808.59;;;10.74;61.09
11692;BME280;33659;42.672;23.354;2022-10-17T05:39:44;95807.50;;;10.75;61.28
11692;BME280;33659;42.672;23.354;2022-10-17T05:42:11;95809.09;;;10.76;60.69
11692;BME280;33659;42.672;23.354;2022-10-17T05:44:38;95815.94;;;10.72;60.44
11692;BME280;33659;42.672;23.354;2022-10-17T05:47:05;95814.13;;;10.59;60.98
11692;BME280;33659;42.672;23.354;2022-10-17T05:49:32;95815.44;;;10.43;61.34
11692;BME280;33659;42.672;23.354;2022-10-17T05:51:59;95823.94;;;10.21;62.32
11692;BME280;33659;42.672;23.354;2022-10-17T05:54:27;95822.75;;;10.13;62.28
11692;BME280;33659;42.672;23.354;2022-10-17T05:56:55;95824.47;;;10.04;62.98
11692;BME280;33659;42.672;23.354;2022-10-17T05:59:23;95831.25;;;10.05;63.17
11692;BME280;33659;42.672;23.354;2022-10-17T06:01:51;95818.00;;;10.01;63.27
11692;BME280;33659;42.672;23.354;2022-10-17T06:04:17;95839.59;;;10.21;63.14
11692;BME280;33659;42.672;23.354;2022-10-17T06:06:44;95846.53;;;10.30;62.87
11692;BME280;33659;42.672;23.354;2022-10-17T06:09:11;95842.16;;;10.40;63.07
11692;BME280;33659;42.672;23.354;2022-10-17T06:11:38;95837.16;;;10.57;62.60
11692;BME280;33659;42.672;23.354;2022-10-17T06:14:06;95837.53;;;10.64;62.55
11692;BME280;33659;42.672;23.354;2022-10-17T06:16:33;95835.38;;;10.80;62.19
11692;BME280;33659;42.672;23.354;2022-10-17T06:18:59;95836.75;;;10.91;61.52
11692;BME280;33659;42.672;23.354;2022-10-17T06:21:26;95840.97;;;11.01;61.37
11692;BME280;33659;42.672;23.354;2022-10-17T06:23:53;95847.53;;;11.12;61.10
11692;BME280;33659;42.672;23.354;2022-10-17T06:26:20;95853.34;;;11.23;61.08
11692;BME280;33659;42.672;23.354;2022-10-17T06:28:47;95860.78;;;11.29;60.60
11692;BME280;33659;42.672;23.354;2022-10-17T06:31:15;95861.47;;;11.35;60.60
11692;BME280;33659;42.672;23.354;2022-10-17T06:33:42;95863.16;;;11.39;60.34
11692;BME280;33659;42.672;23.354;2022-10-17T06:36:11;95865.28;;;11.51;59.82
11692;BME280;33659;42.672;23.354;2022-10-17T06:38:38;95867.00;;;11.56;59.72
11692;BME280;33659;42.672;23.354;2022-10-17T06:41:06;95859.34;;;11.59;59.41
11692;BME280;33659;42.672;23.354;2022-10-17T06:43:34;95870.19;;;11.66;59.72
11692;BME280;33659;42.672;23.354;2022-10-17T06:46:00;95864.84;;;11.58;59.43
11692;BME280;33659;42.672;23.354;2022-10-17T06:48:28;95874.16;;;11.64;59.52
11692;BME280;33659;42.672;23.354;2022-10-17T06:50:57;95867.63;;;11.75;58.91
11692;BME280;33659;42.672;23.354;2022-10-17T06:53:26;95867.69;;;11.84;58.52
11692;BME280;33659;42.672;23.354;2022-10-17T06:55:53;95868.09;;;11.77;58.98
11692;BME280;33659;42.672;23.354;2022-10-17T06:58:22;95870.66;;;11.69;59.29
11692;BME280;33659;42.672;23.354;2022-10-17T07:00:49;95870.03;;;11.72;59.48
11692;BME280;33659;42.672;23.354;2022-10-17T07:03:15;95868.38;;;11.76;59.56
11692;BME280;33659;42.672;23.354;2022-10-17T07:05:50;95873.81;;;11.79;59.04
11692;BME280;33659;42.672;23.354;2022-10-17T07:08:17;95869.16;;;11.76;59.18
11692;BME280;33659;42.672;23.354;2022-10-17T07:10:43;95867.72;;;11.70;59.33
11692;BME280;33659;42.672;23.354;2022-10-17T07:13:10;95869.09;;;11.68;59.75
11692;BME280;33659;42.672;23.354;2022-10-17T07:15:37;95872.38;;;11.73;59.69
11692;BME280;33659;42.672;23.354;2022-10-17T07:18:04;95865.38;;;11.82;59.35
11692;BME280;33659;42.672;23.354;2022-10-17T07:20:31;95869.19;;;11.99;59.10
11692;BME280;33659;42.672;23.354;2022-10-17T07:22:59;95868.94;;;12.09;58.42
11692;BME280;33659;42.672;23.354;2022-10-17T07:25:26;95868.94;;;12.09;58.39
11692;BME280;33659;42.672;23.354;2022-10-17T07:27:53;95872.06;;;12.11;58.39
11692;BME280;33659;42.672;23.354;2022-10-17T07:30:20;95878.09;;;12.20;58.23
11692;BME280;33659;42.672;23.354;2022-10-17T07:32:47;95884.47;;;12.28;57.94
11692;BME280;33659;42.672;23.354;2022-10-17T07:35:14;95876.56;;;12.19;58.22
11692;BME280;33659;42.672;23.354;2022-10-17T07:37:40;95878.69;;;12.17;58.12
11692;BME280;33659;42.672;23.354;2022-10-17T07:40:09;95881.81;;;12.19;58.37
11692;BME280;33659;42.672;23.354;2022-10-17T07:42:36;95890.84;;;12.13;58.74
11692;BME280;33659;42.672;23.354;2022-10-17T07:45:04;95886.44;;;12.22;58.62
11692;BME280;33659;42.672;23.354;2022-10-17T07:47:31;95886.19;;;12.32;58.45
11692;BME280;33659;42.672;23.354;2022-10-17T07:50:00;95878.34;;;12.41;58.12
11692;BME280;33659;42.672;23.354;2022-10-17T07:52:26;95878.13;;;12.51;57.69
11692;BME280;33659;42.672;23.354;2022-10-17T07:54:53;95887.09;;;12.59;57.79
11692;BME280;33659;42.672;23.354;2022-10-17T07:57:21;95888.38;;;12.70;57.14
11692;BME280;33659;42.672;23.354;2022-10-17T07:59:48;95884.03;;;12.74;57.00
11692;BME280;33659;42.672;23.354;2022-10-17T08:02:20;95887.16;;;12.76;56.85
11692;BME280;33659;42.672;23.354;2022-10-17T08:04:47;95887.00;;;12.81;56.90
11692;BME280;33659;42.672;23.354;2022-10-17T08:07:13;95888.84;;;12.81;56.65
11692;BME280;33659;42.672;23.354;2022-10-17T08:09:41;95877.00;;;12.83;57.15
11692;BME280;33659;42.672;23.354;2022-10-17T08:12:08;95869.63;;;12.94;56.94
11692;BME280;33659;42.672;23.354;2022-10-17T08:14:36;95875.34;;;13.05;56.34
11692;BME280;33659;42.672;23.354;2022-10-17T08:17:04;95868.44;;;13.17;55.97
11692;BME280;33659;42.672;23.354;2022-10-17T08:19:30;95873.91;;;13.30;55.38
11692;BME280;33659;42.672;23.354;2022-10-17T08:21:57;95859.69;;;13.39;55.32
11692;BME280;33659;42.672;23.354;2022-10-17T08:24:25;95860.78;;;13.55;53.81
11692;BME280;33659;42.672;23.354;2022-10-17T08:26:52;95858.16;;;13.64;53.14
11692;BME280;33659;42.672;23.354;2022-10-17T08:29:19;95858.31;;;13.68;53.08
11692;BME280;33659;42.672;23.354;2022-10-17T08:31:47;95868.97;;;13.80;52.90
11692;BME280;33659;42.672;23.354;2022-10-17T08:34:13;95866.66;;;13.87;52.71
11692;BME280;33659;42.672;23.354;2022-10-17T08:36:41;95868.16;;;13.97;51.48
11692;BME280;33659;42.672;23.354;2022-10-17T08:39:07;95864.31;;;14.03;51.43
11692;BME280;33659;42.672;23.354;2022-10-17T08:41:46;95866.16;;;14.11;51.17
11692;BME280;33659;42.672;23.354;2022-10-17T08:44:31;95865.50;;;14.23;50.76
11692;BME280;33659;42.672;23.354;2022-10-17T08:47:03;95863.47;;;14.28;51.29
11692;BME280;33659;42.672;23.354;2022-10-17T08:49:38;95877.22;;;14.34;51.31
11692;BME280;33659;42.672;23.354;2022-10-17T08:52:11;95866.69;;;14.43;50.20
11692;BME280;33659;42.672;23.354;2022-10-17T08:54:42;95868.06;;;14.49;49.03
11692;BME280;33659;42.672;23.354;2022-10-17T08:57:11;95873.50;;;14.52;49.52
11692;BME280;33659;42.672;23.354;2022-10-17T08:59:40;95874.09;;;14.58;49.79
11692;BME280;33659;42.672;23.354;2022-10-17T09:02:20;95873.88;;;14.72;49.78
11692;BME280;33659;42.672;23.354;2022-10-17T09:05:02;95868.91;;;14.79;49.46
11692;BME280;33659;42.672;23.354;2022-10-17T09:07:39;95868.84;;;14.87;48.34
11692;BME280;33659;42.672;23.354;2022-10-17T09:10:12;95860.28;;;14.99;48.49
11692;BME280;33659;42.672;23.354;2022-10-17T09:12:56;95869.63;;;15.17;47.71
11692;BME280;33659;42.672;23.354;2022-10-17T09:15:44;95870.09;;;15.40;47.03
11692;BME280;33659;42.672;23.354;2022-10-17T09:18:18;95865.47;;;15.58;44.71
11692;BME280;33659;42.672;23.354;2022-10-17T09:20:51;95864.25;;;15.77;44.44
11692;BME280;33659;42.672;23.354;2022-10-17T09:23:21;95874.34;;;15.95;44.30
11692;BME280;33659;42.672;23.354;2022-10-17T09:25:52;95866.38;;;16.16;43.45
11692;BME280;33659;42.672;23.354;2022-10-17T09:28:22;95858.09;;;16.39;43.53
11692;BME280;33659;42.672;23.354;2022-10-17T09:30:55;95867.56;;;16.64;43.05
11692;BME280;33659;42.672;23.354;2022-10-17T09:33:27;95860.34;;;16.86;42.54
11692;BME280;33659;42.672;23.354;2022-10-17T09:35:55;95859.25;;;16.99;42.37
11692;BME280;33659;42.672;23.354;2022-10-17T09:38:36;95858.16;;;17.00;41.61
11692;BME280;33659;42.672;23.354;2022-10-17T09:41:06;95861.03;;;17.07;41.42
11692;BME280;33659;42.672;23.354;2022-10-17T09:43:38;95852.75;;;17.21;41.04
11692;BME280;33659;42.672;23.354;2022-10-17T09:46:09;95860.97;;;17.31;40.77
11692;BME280;33659;42.672;23.354;2022-10-17T09:48:41;95857.75;;;17.38;39.49
11692;BME280;33659;42.672;23.354;2022-10-17T09:51:09;95853.56;;;17.49;40.13
11692;BME280;33659;42.672;23.354;2022-10-17T09:53:38;95859.59;;;17.62;39.87
11692;BME280;33659;42.672;23.354;2022-10-17T09:56:09;95857.81;;;17.78;39.64
11692;BME280;33659;42.672;23.354;2022-10-17T09:58:41;95853.75;;;17.97;39.36
11692;BME280;33659;42.672;23.354;2022-10-17T10:01:19;95847.41;;;18.13;37.37
11692;BME280;33659;42.672;23.354;2022-10-17T10:03:48;95842.16;;;18.29;37.48
11692;BME280;33659;42.672;23.354;2022-10-17T10:06:33;95844.28;;;18.39;37.07
11692;BME280;33659;42.672;23.354;2022-10-17T10:09:00;95845.63;;;18.65;37.52
11692;BME280;33659;42.672;23.354;2022-10-17T10:11:44;95840.25;;;18.93;36.46
11692;BME280;33659;42.672;23.354;2022-10-17T10:14:17;95841.41;;;19.11;34.72
11692;BME280;33659;42.672;23.354;2022-10-17T10:16:46;95834.34;;;19.15;33.87
11692;BME280;33659;42.672;23.354;2022-10-17T10:19:23;95833.00;;;19.25;34.19
11692;BME280;33659;42.672;23.354;2022-10-17T10:21:54;95814.84;;;19.43;34.09
11692;BME280;33659;42.672;23.354;2022-10-17T10:24:21;95827.91;;;19.52;32.51
11692;BME280;33659;42.672;23.354;2022-10-17T10:26:50;95825.41;;;19.59;32.31
11692;BME280;33659;42.672;23.354;2022-10-17T10:29:22;95819.19;;;19.70;32.00
11692;BME280;33659;42.672;23.354;2022-10-17T10:31:53;95823.94;;;19.81;32.86
11692;BME280;33659;42.672;23.354;2022-10-17T10:34:23;95813.19;;;19.93;32.39
11692;BME280;33659;42.672;23.354;2022-10-17T10:36:55;95815.41;;;19.91;31.50
11692;BME280;33659;42.672;23.354;2022-10-17T10:39:42;95814.03;;;19.97;32.00
11692;BME280;33659;42.672;23.354;2022-10-17T10:42:23;95815.31;;;20.07;31.90
11692;BME280;33659;42.672;23.354;2022-10-17T10:44:51;95813.03;;;20.05;31.38
11692;BME280;33659;42.672;23.354;2022-10-17T10:47:21;95807.72;;;20.28;31.71
11692;BME280;33659;42.672;23.354;2022-10-17T10:50:07;95806.09;;;20.43;30.94
11692;BME280;33659;42.672;23.354;2022-10-17T10:52:40;95799.63;;;20.67;30.57
11692;BME280;33659;42.672;23.354;2022-10-17T10:57:43;95801.75;;;20.80;29.87
11692;BME280;33659;42.672;23.354;2022-10-17T11:00:14;95793.06;;;20.57;29.63
11692;BME280;33659;42.672;23.354;2022-10-17T11:02:48;95796.66;;;20.45;29.66
11692;BME280;33659;42.672;23.354;2022-10-17T11:05:33;95781.78;;;20.64;29.87
11692;BME280;33659;42.672;23.354;2022-10-17T11:08:06;95774.22;;;20.92;29.64
11692;BME280;33659;42.672;23.354;2022-10-17T11:10:41;95786.56;;;21.34;29.16
11692;BME280;33659;42.672;23.354;2022-10-17T11:13:13;95772.72;;;21.51;28.29
11692;BME280;33659;42.672;23.354;2022-10-17T11:15:46;95777.50;;;21.72;27.97
11692;BME280;33659;42.672;23.354;2022-10-17T11:18:21;95780.31;;;21.86;28.06
11692;BME280;33659;42.672;23.354;2022-10-17T11:20:54;95778.44;;;21.90;28.36
11692;BME280;33659;42.672;23.354;2022-10-17T11:23:27;95775.81;;;21.94;28.35
11692;BME280;33659;42.672;23.354;2022-10-17T11:25:58;95776.66;;;21.65;27.65
11692;BME280;33659;42.672;23.354;2022-10-17T11:28:28;95772.91;;;21.35;27.67
11692;BME280;33659;42.672;23.354;2022-10-17T11:30:57;95771.22;;;20.94;28.12
11692;BME280;33659;42.672;23.354;2022-10-17T11:33:28;95775.19;;;21.07;28.86
11692;BME280;33659;42.672;23.354;2022-10-17T11:36:00;95767.22;;;21.37;28.97
11692;BME280;33659;42.672;23.354;2022-10-17T11:38:37;95770.09;;;21.55;27.98
11692;BME280;33659;42.672;23.354;2022-10-17T11:41:09;95769.22;;;21.81;28.46
11692;BME280;33659;42.672;23.354;2022-10-17T11:43:43;95766.38;;;22.00;27.50
11692;BME280;33659;42.672;23.354;2022-10-17T11:46:14;95761.25;;;22.22;30.43
11692;BME280;33659;42.672;23.354;2022-10-17T11:48:54;95758.03;;;22.42;31.25
11692;BME280;33659;42.672;23.354;2022-10-17T11:51:24;95762.72;;;22.63;29.03
11692;BME280;33659;42.672;23.354;2022-10-17T11:54:01;95758.97;;;22.71;28.17
11692;BME280;33659;42.672;23.354;2022-10-17T11:56:35;95747.97;;;22.77;27.21
11692;BME280;33659;42.672;23.354;2022-10-17T11:59:17;95752.63;;;22.87;27.85
11692;BME280;33659;42.672;23.354;2022-10-17T12:01:52;95755.81;;;23.14;28.02
11692;BME280;33659;42.672;23.354;2022-10-17T12:04:29;95747.50;;;23.30;27.41
11692;BME280;33659;42.672;23.354;2022-10-17T12:07:10;95746.34;;;23.31;28.84
11692;BME280;33659;42.672;23.354;2022-10-17T12:09:42;95745.25;;;23.32;27.22
11692;BME280;33659;42.672;23.354;2022-10-17T12:12:23;95741.44;;;23.43;27.69
11692;BME280;33659;42.672;23.354;2022-10-17T12:14:50;95740.69;;;23.50;25.65
11692;BME280;33659;42.672;23.354;2022-10-17T12:17:30;95741.53;;;23.61;25.47
11692;BME280;33659;42.672;23.354;2022-10-17T12:20:25;95738.44;;;23.56;26.48
11692;BME280;33659;42.672;23.354;2022-10-17T12:22:56;95741.53;;;23.61;27.60
11692;BME280;33659;42.672;23.354;2022-10-17T12:25:26;95740.81;;;23.71;26.48
11692;BME280;33659;42.672;23.354;2022-10-17T12:28:13;95744.19;;;23.61;25.15
11692;BME280;33659;42.672;23.354;2022-10-17T12:30:52;95742.19;;;23.37;25.47
11692;BME280;33659;42.672;23.354;2022-10-17T12:33:21;95726.91;;;23.19;26.05
11692;BME280;33659;42.672;23.354;2022-10-17T12:42:31;95728.50;;;22.65;25.70
11692;BME280;33659;42.672;23.354;2022-10-17T12:44:59;95734.63;;;22.69;26.47
11692;BME280;33659;42.672;23.354;2022-10-17T12:47:27;95727.19;;;22.93;26.20
11692;BME280;33659;42.672;23.354;2022-10-17T12:49:54;95730.28;;;22.47;26.06
11692;BME280;33659;42.672;23.354;2022-10-17T12:55:11;95727.94;;;22.35;26.50
11692;BME280;33659;42.672;23.354;2022-10-17T12:57:49;95733.53;;;22.81;26.59
11692;BME280;33659;42.672;23.354;2022-10-17T13:00:20;95725.84;;;23.45;26.70
11692;BME280;33659;42.672;23.354;2022-10-17T13:02:48;95724.47;;;24.34;24.48
11692;BME280;33659;42.672;23.354;2022-10-17T13:05:23;95722.88;;;24.93;24.84
11692;BME280;33659;42.672;23.354;2022-10-17T13:07:51;95727.47;;;25.80;24.69
11692;BME280;33659;42.672;23.354;2022-10-17T13:10:20;95721.13;;;26.15;22.89
11692;BME280;33659;42.672;23.354;2022-10-17T13:12:50;95728.19;;;26.43;22.77
11692;BME280;33659;42.672;23.354;2022-10-17T13:15:19;95719.31;;;26.50;21.48
11692;BME280;33659;42.672;23.354;2022-10-17T13:17:55;95723.75;;;26.67;22.46